Time;durP1;ratioP1;P1;durP2;ratioP2;P2;SDS_P1;SDS_P2;PMS_P1;PMS_P2;Temp;Humidity;BMP_temperature;BMP_pressure;BME280_temperature;BME280_humidity;BME280_pressure;Samples;Min_cycle;Max_cycle;Signal;HPM_P1;HPM_P2
2022/08/17 00:00:59;;;;;;;;;;;;;;;;;;5005010;28;20029;-57
2022/08/17 00:03:24;;;;;;;;;;;;;;;;;;5013055;28;19921;-55
2022/08/17 00:05:49;;;;;;;;;;;;;;;;;;5008445;28;20436;-55
2022/08/17 00:08:14;;;;;;;;;;;;;;;;;;5006888;28;20533;-55
2022/08/17 00:10:40;;;;;;;;;;;;;;;;;;5011946;28;20770;-53
2022/08/17 00:13:05;;;;;;;;;;;;;;;;;;5006519;28;20426;-54
2022/08/17 00:15:30;;;;;;;;;;;;;;;;;;5012643;28;19924;-53
2022/08/17 00:17:56;;;;;;;;;;;;;;;;;;5007596;28;20327;-53
2022/08/17 00:20:21;;;;;;;;;;;;;;;;;;5006172;28;20879;-54
2022/08/17 00:22:46;;;;;;;;;;;;;;;;;;5011803;28;20485;-52
2022/08/17 00:25:11;;;;;;;;;;;;;;;;;;5005816;28;19934;-54
2022/08/17 00:27:37;;;;;;;;;;;;;;;;;;5011646;28;19921;-54
2022/08/17 00:30:02;;;;;;;;;;;;;;;;;;5007302;28;19928;-54
2022/08/17 00:32:27;;;;;;;;;;;;;;;;;;5005901;28;19928;-56
2022/08/17 00:34:52;;;;;;;;;;;;;;;;;;5011818;28;20003;-56
2022/08/17 00:37:17;;;;;;;;;;;;;;;;;;5008431;28;19978;-56
2022/08/17 00:39:43;;;;;;;;;;;;;;;;;;5013326;28;19917;-57
2022/08/17 00:42:08;;;;;;;;;;;;;;;;;;5008507;28;19971;-53
2022/08/17 00:44:33;;;;;;;;;;;;;;;;;;5005878;28;19924;-54
2022/08/17 00:46:58;;;;;;;;;;;;;;;;;;5012984;28;20008;-55
2022/08/17 00:49:25;;;;;;;;;;;;;;;;;;5006626;28;19964;-56
2022/08/17 00:51:50;;;;;;;;;;;;;;;;;;5010630;28;19917;-55
2022/08/17 00:54:15;;;;;;;;;;;;;;;;;;5019668;28;19923;-53
2022/08/17 00:56:40;;;;;;;;;;;;;;;;;;5019686;28;19921;-54
2022/08/17 00:59:05;;;;;;;;;;;;;;;;;;5026725;28;19975;-55
2022/08/17 01:01:31;;;;;;;;;;;;;;;;;;5007141;28;19932;-56
2022/08/17 01:03:56;;;;;;;;;;;;;;;;;;5012222;28;19925;-55
2022/08/17 01:06:21;;;;;;;;;;;;;;;;;;5005910;28;19925;-54
2022/08/17 01:08:46;;;;;;;;;;;;;;;;;;5020368;28;19921;-57
2022/08/17 01:11:11;;;;;;;;;;;;;;;;;;5012178;28;20560;-56
2022/08/17 01:13:36;;;;;;;;;;;;;;;;;;5005895;28;19924;-53
2022/08/17 01:16:02;;;;;;;;;;;;;;;;;;5008809;28;19995;-51
2022/08/17 01:18:27;;;;;;;;;;;;;;;;;;5006089;28;20361;-55
2022/08/17 01:20:52;;;;;;;;;;;;;;;;;;5006007;28;20346;-56
2022/08/17 01:23:17;;;;;;;;;;;;;;;;;;5012115;28;20249;-52
2022/08/17 01:25:42;;;;;;;;;;;;;;;;;;5005710;28;19917;-54
2022/08/17 01:28:08;;;;;;;;;;;;;;;;;;5012415;28;19922;-52
2022/08/17 01:30:33;;;;;;;;;;;;;;;;;;5005446;28;19924;-57
2022/08/17 01:32:58;;;;;;;;;;;;;;;;;;5005760;28;20587;-56
2022/08/17 01:35:27;;;;;;;;;;;;;;;;;;5025806;28;20332;-53
2022/08/17 01:37:52;;;;;;;;;;;;;;;;;;5005420;28;19978;-56
2022/08/17 01:40:17;;;;;;;;;;;;;;;;;;5012095;28;20043;-54
2022/08/17 01:42:43;;;;;;;;;;;;;;;;;;5005771;28;19921;-55
2022/08/17 01:45:08;;;;;;;;;;;;;;;;;;5020852;28;19921;-53
2022/08/17 01:47:33;;;;;;;;;;;;;;;;;;5011536;28;20405;-55
2022/08/17 01:49:58;;;;;;;;;;;;;;;;;;5005942;28;19921;-51
2022/08/17 01:52:24;;;;;;;;;;;;;;;;;;5010878;28;19924;-56
2022/08/17 01:54:49;;;;;;;;;;;;;;;;;;5005822;28;19918;-57
2022/08/17 01:57:14;;;;;;;;;;;;;;;;;;5002474;28;19914;-54
2022/08/17 01:59:39;;;;;;;;;;;;;;;;;;5007492;28;19913;-55
2022/08/17 02:02:06;;;;;;;;;;;;;;;;;;5019347;28;19972;-54
2022/08/17 02:04:31;;;;;;;;;;;;;;;;;;5011685;28;19949;-55
2022/08/17 02:06:57;;;;;;;;;;;;;;;;;;5005318;28;19971;-56
2022/08/17 02:09:22;;;;;;;;;;;;;;;;;;5005477;28;19921;-56
2022/08/17 02:11:47;;;;;;;;;;;;;;;;;;5011071;28;19922;-56
2022/08/17 02:14:12;;;;;;;;;;;;;;;;;;5005935;28;20571;-53
2022/08/17 02:16:37;;;;;;;;;;;;;;;;;;5009912;28;20524;-55
2022/08/17 02:19:03;;;;;;;;;;;;;;;;;;5004593;28;20437;-54
2022/08/17 02:21:28;;;;;;;;;;;;;;;;;;5006441;28;20389;-56
2022/08/17 02:23:53;;;;;;;;;;;;;;;;;;5026053;28;19924;-53
2022/08/17 02:26:19;;;;;;;;;;;;;;;;;;5005069;28;19917;-49
2022/08/17 02:28:44;;;;;;;;;;;;;;;;;;5010226;28;19992;-53
2022/08/17 02:31:09;;;;;;;;;;;;;;;;;;5004678;28;19917;-51
2022/08/17 02:33:35;;;;;;;;;;;;;;;;;;5005590;28;19952;-53
2022/08/17 02:36:00;;;;;;;;;;;;;;;;;;5010099;28;19922;-54
2022/08/17 02:38:25;;;;;;;;;;;;;;;;;;5010261;28;20583;-54
2022/08/17 02:40:50;;;;;;;;;;;;;;;;;;5014901;28;19964;-57
2022/08/17 02:43:16;;;;;;;;;;;;;;;;;;5014055;28;19922;-55
2022/08/17 02:45:42;;;;;;;;;;;;;;;;;;5023361;28;20639;-55
2022/08/17 02:48:08;;;;;;;;;;;;;;;;;;5011848;28;19967;-54
2022/08/17 02:50:33;;;;;;;;;;;;;;;;;;5009054;28;19917;-55
2022/08/17 02:52:58;;;;;;;;;;;;;;;;;;5013983;28;19973;-52
2022/08/17 02:55:24;;;;;;;;;;;;;;;;;;5026064;28;19959;-51
2022/08/17 02:57:49;;;;;;;;;;;;;;;;;;5009790;28;19924;-54
2022/08/17 03:00:14;;;;;;;;;;;;;;;;;;5013933;28;19923;-54
2022/08/17 03:02:42;;;;;;;;;;;;;;;;;;5008302;28;20365;-53
2022/08/17 03:05:07;;;;;;;;;;;;;;;;;;5014651;28;19917;-55
2022/08/17 03:07:32;;;;;;;;;;;;;;;;;;5009103;28;20122;-54
2022/08/17 03:09:58;;;;;;;;;;;;;;;;;;5008695;28;19922;-54
2022/08/17 03:12:23;;;;;;;;;;;;;;;;;;5013948;28;19924;-56
2022/08/17 03:14:48;;;;;;;;;;;;;;;;;;5006993;28;20783;-52
2022/08/17 03:17:13;;;;;;;;;;;;;;;;;;5027642;28;20056;-54
2022/08/17 03:19:38;;;;;;;;;;;;;;;;;;5005225;28;20581;-57
2022/08/17 03:22:04;;;;;;;;;;;;;;;;;;5007885;28;20016;-52
2022/08/17 03:24:29;;;;;;;;;;;;;;;;;;5015174;28;19921;-53
2022/08/17 03:26:54;;;;;;;;;;;;;;;;;;5006965;28;19917;-55
2022/08/17 03:29:19;;;;;;;;;;;;;;;;;;5014436;28;19918;-55
2022/08/17 03:31:45;;;;;;;;;;;;;;;;;;5008214;28;19928;-52
2022/08/17 03:34:10;;;;;;;;;;;;;;;;;;5007592;28;20410;-53
2022/08/17 03:36:36;;;;;;;;;;;;;;;;;;5014219;28;19921;-53
2022/08/17 03:39:01;;;;;;;;;;;;;;;;;;5008687;28;20453;-52
2022/08/17 03:41:26;;;;;;;;;;;;;;;;;;5011705;28;19925;-54
2022/08/17 03:43:51;;;;;;;;;;;;;;;;;;5004828;28;19928;-56
2022/08/17 03:57:12;;;;;;;;;;;;;;;;;;5014264;28;19924;-55
2022/08/17 03:59:37;;;;;;;;;;;;;;;;;;5007392;28;19917;-55
2022/08/17 04:02:02;;;;;;;;;;;;;;;;;;5029048;28;19925;-53
2022/08/17 04:04:28;;;;;;;;;;;;;;;;;;5006511;28;20405;-54
2022/08/17 04:06:53;;;;;;;;;;;;;;;;;;5021319;28;19925;-51
2022/08/17 04:09:21;;;;;;;;;;;;;;;;;;5013444;28;19922;-54
2022/08/17 04:11:46;;;;;;;;;;;;;;;;;;5006505;28;20429;-54
2022/08/17 04:14:11;;;;;;;;;;;;;;;;;;5013532;28;20008;-53
2022/08/17 04:16:37;;;;;;;;;;;;;;;;;;5006782;28;19917;-55
2022/08/17 04:19:02;;;;;;;;;;;;;;;;;;5008845;28;19917;-52
2022/08/17 04:21:27;;;;;;;;;;;;;;;;;;5013889;28;19925;-49
2022/08/17 04:23:52;;;;;;;;;;;;;;;;;;5005019;28;19927;-54
2022/08/17 04:26:17;;;;;;;;;;;;;;;;;;5012299;28;19924;-53
2022/08/17 04:28:43;;;;;;;;;;;;;;;;;;5005986;28;19917;-55
2022/08/17 04:31:08;;;;;;;;;;;;;;;;;;5008481;28;19929;-52
2022/08/17 04:33:33;;;;;;;;;;;;;;;;;;5011156;28;19921;-55
2022/08/17 04:35:58;;;;;;;;;;;;;;;;;;5003694;28;19956;-50
2022/08/17 04:38:24;;;;;;;;;;;;;;;;;;5012778;28;19967;-54
2022/08/17 04:43:33;;;;;;;;;;;;;;;;;;5006171;28;20120;-56
2022/08/17 04:45:58;;;;;;;;;;;;;;;;;;5011473;28;19921;-53
2022/08/17 04:48:23;;;;;;;;;;;;;;;;;;5006087;28;19924;-56
2022/08/17 04:50:48;;;;;;;;;;;;;;;;;;5023442;28;19925;-56
2022/08/17 04:53:14;;;;;;;;;;;;;;;;;;5022767;28;20340;-52
2022/08/17 04:55:39;;;;;;;;;;;;;;;;;;5007769;28;20015;-55
2022/08/17 04:58:04;;;;;;;;;;;;;;;;;;5013435;28;19917;-50
2022/08/17 05:00:29;;;;;;;;;;;;;;;;;;5007600;28;19921;-55
2022/08/17 05:02:55;;;;;;;;;;;;;;;;;;5005947;28;19924;-54
2022/08/17 05:05:20;;;;;;;;;;;;;;;;;;5018770;28;19921;-52
2022/08/17 05:07:45;;;;;;;;;;;;;;;;;;5005313;28;19917;-54
2022/08/17 05:10:10;;;;;;;;;;;;;;;;;;5009422;28;21837;-55
2022/08/17 05:12:35;;;;;;;;;;;;;;;;;;5019840;28;19921;-54
2022/08/17 05:15:01;;;;;;;;;;;;;;;;;;5003692;28;20211;-56
2022/08/17 05:17:26;;;;;;;;;;;;;;;;;;5006356;28;19945;-56
2022/08/17 05:19:51;;;;;;;;;;;;;;;;;;5021254;28;19970;-54
2022/08/17 05:22:16;;;;;;;;;;;;;;;;;;5012456;28;19917;-54
2022/08/17 05:24:41;;;;;;;;;;;;;;;;;;5010883;28;19940;-54
2022/08/17 05:27:07;;;;;;;;;;;;;;;;;;5025008;28;19964;-57
2022/08/17 05:29:32;;;;;;;;;;;;;;;;;;5025867;28;19921;-54
2022/08/17 05:31:57;;;;;;;;;;;;;;;;;;5021005;28;20844;-52
2022/08/17 05:34:22;;;;;;;;;;;;;;;;;;5010104;28;20396;-56
2022/08/17 05:36:48;;;;;;;;;;;;;;;;;;5022527;28;19921;-54
2022/08/17 05:39:13;;;;;;;;;;;;;;;;;;5009483;28;20427;-51
2022/08/17 05:41:38;;;;;;;;;;;;;;;;;;5005136;28;20512;-54
2022/08/17 05:44:04;;;;;;;;;;;;;;;;;;5005775;28;20066;-50
2022/08/17 05:46:29;;;;;;;;;;;;;;;;;;5011355;28;20401;-53
2022/08/17 05:48:54;;;;;;;;;;;;;;;;;;5006365;28;19921;-57
2022/08/17 05:51:19;;;;;;;;;;;;;;;;;;5014380;28;19922;-54
2022/08/17 05:53:45;;;;;;;;;;;;;;;;;;5004438;28;19922;-56
2022/08/17 05:56:10;;;;;;;;;;;;;;;;;;4991418;28;20386;-52
2022/08/17 05:58:35;;;;;;;;;;;;;;;;;;5009737;28;20630;-55
2022/08/17 06:01:00;;;;;;;;;;;;;;;;;;5004862;28;19913;-56
2022/08/17 06:03:25;;;;;;;;;;;;;;;;;;5011484;28;20004;-54
2022/08/17 06:05:51;;;;;;;;;;;;;;;;;;5003615;28;20054;-55
2022/08/17 06:08:16;;;;;;;;;;;;;;;;;;5006298;28;19974;-56
2022/08/17 06:10:41;;;;;;;;;;;;;;;;;;5007565;28;19936;-53
2022/08/17 06:13:07;;;;;;;;;;;;;;;;;;5011082;28;19918;-55
2022/08/17 06:15:32;;;;;;;;;;;;;;;;;;5010437;28;19925;-55
2022/08/17 06:17:57;;;;;;;;;;;;;;;;;;5011040;28;19914;-54
2022/08/17 06:20:22;;;;;;;;;;;;;;;;;;5010954;28;19920;-56
2022/08/17 06:22:48;;;;;;;;;;;;;;;;;;5024820;28;20675;-54
2022/08/17 06:25:13;;;;;;;;;;;;;;;;;;5008658;28;20476;-56
2022/08/17 06:27:38;;;;;;;;;;;;;;;;;;5010687;28;20782;-53
2022/08/17 06:30:07;;;;;;;;;;;;;;;;;;5009307;28;20439;-54
2022/08/17 06:32:33;;;;;;;;;;;;;;;;;;5009887;28;20259;-52
2022/08/17 06:34:59;;;;;;;;;;;;;;;;;;5011368;28;20499;-53
2022/08/17 06:37:24;;;;;;;;;;;;;;;;;;5023980;28;19921;-54
2022/08/17 06:39:50;;;;;;;;;;;;;;;;;;5011263;28;19925;-59
2022/08/17 06:42:15;;;;;;;;;;;;;;;;;;5023689;28;20367;-55
2022/08/17 06:44:40;;;;;;;;;;;;;;;;;;5010691;28;19924;-53
2022/08/17 06:47:05;;;;;;;;;;;;;;;;;;5008410;28;20293;-58
2022/08/17 06:49:31;;;;;;;;;;;;;;;;;;5010172;28;20262;-54
2022/08/17 06:51:57;;;;;;;;;;;;;;;;;;5009669;28;19922;-52
2022/08/17 06:54:22;;;;;;;;;;;;;;;;;;5012236;28;19976;-55
2022/08/17 06:56:47;;;;;;;;;;;;;;;;;;5010444;28;20000;-57
2022/08/17 06:59:12;;;;;;;;;;;;;;;;;;5023692;28;19940;-57
2022/08/17 07:01:38;;;;;;;;;;;;;;;;;;5009060;28;19917;-56
2022/08/17 07:04:03;;;;;;;;;;;;;;;;;;5009177;28;19917;-56
2022/08/17 07:06:28;;;;;;;;;;;;;;;;;;5009845;28;20611;-54
2022/08/17 07:08:53;;;;;;;;;;;;;;;;;;5009414;28;20019;-53
2022/08/17 07:11:18;;;;;;;;;;;;;;;;;;5009419;28;20305;-56
2022/08/17 07:13:44;;;;;;;;;;;;;;;;;;5007106;28;19922;-56
2022/08/17 07:16:09;;;;;;;;;;;;;;;;;;5011534;28;19975;-53
2022/08/17 07:18:34;;;;;;;;;;;;;;;;;;5024671;28;19913;-56
2022/08/17 07:20:59;;;;;;;;;;;;;;;;;;5009683;28;19987;-57
2022/08/17 07:23:25;;;;;;;;;;;;;;;;;;5026248;28;19917;-56
2022/08/17 07:25:50;;;;;;;;;;;;;;;;;;5012365;28;19917;-54
2022/08/17 07:28:16;;;;;;;;;;;;;;;;;;5011619;28;19917;-55
2022/08/17 07:30:42;;;;;;;;;;;;;;;;;;5013604;28;19948;-57
2022/08/17 07:33:07;;;;;;;;;;;;;;;;;;5012028;28;19988;-54
2022/08/17 07:35:38;;;;;;;;;;;;;;;;;;5011616;28;19917;-55
2022/08/17 07:38:03;;;;;;;;;;;;;;;;;;5028754;28;20376;-56
2022/08/17 07:40:29;;;;;;;;;;;;;;;;;;5013173;28;19932;-57
2022/08/17 07:42:54;;;;;;;;;;;;;;;;;;5013568;28;19916;-56
2022/08/17 07:48:18;;;;;;;;;;;;;;;;;;5030372;28;20332;-54
2022/08/17 07:50:43;;;;;;;;;;;;;;;;;;5026790;28;20004;-56
2022/08/17 07:53:09;;;;;;;;;;;;;;;;;;5013336;28;19971;-55
2022/08/17 07:55:39;;;;;;;;;;;;;;;;;;5013981;28;20686;-52
2022/08/17 07:58:04;;;;;;;;;;;;;;;;;;5013357;28;19919;-54
2022/08/17 08:00:31;;;;;;;;;;;;;;;;;;5011985;28;19921;-57
2022/08/17 08:02:56;;;;;;;;;;;;;;;;;;5011810;28;19967;-53
2022/08/17 08:05:21;;;;;;;;;;;;;;;;;;5025600;28;20020;-54
2022/08/17 08:07:46;;;;;;;;;;;;;;;;;;5014776;28;19917;-52
2022/08/17 08:10:12;;;;;;;;;;;;;;;;;;5012287;28;19919;-53
2022/08/17 08:12:37;;;;;;;;;;;;;;;;;;5012824;28;19922;-53
2022/08/17 08:15:05;;;;;;;;;;;;;;;;;;5012101;28;19956;-56
2022/08/17 08:17:34;;;;;;;;;;;;;;;;;;5011733;28;20342;-54
2022/08/17 08:19:59;;;;;;;;;;;;;;;;;;5011928;28;19918;-56
2022/08/17 08:22:28;;;;;;;;;;;;;;;;;;5012062;28;19991;-55
2022/08/17 08:24:54;;;;;;;;;;;;;;;;;;5012338;28;19944;-56
2022/08/17 08:27:19;;;;;;;;;;;;;;;;;;5010728;28;20207;-57
2022/08/17 08:29:44;;;;;;;;;;;;;;;;;;5010964;28;19917;-55
2022/08/17 08:32:09;;;;;;;;;;;;;;;;;;5013492;28;19978;-57
2022/08/17 08:34:35;;;;;;;;;;;;;;;;;;5009502;28;20012;-57
2022/08/17 08:37:00;;;;;;;;;;;;;;;;;;5013463;28;19991;-55
2022/08/17 08:39:25;;;;;;;;;;;;;;;;;;5012786;28;20313;-56
2022/08/17 08:41:50;;;;;;;;;;;;;;;;;;5011289;28;19995;-56
2022/08/17 08:44:16;;;;;;;;;;;;;;;;;;5010348;28;19917;-51
2022/08/17 08:46:41;;;;;;;;;;;;;;;;;;5010088;28;19917;-59
2022/08/17 08:49:08;;;;;;;;;;;;;;;;;;5011307;28;20016;-57
2022/08/17 08:51:33;;;;;;;;;;;;;;;;;;5011829;28;19941;-57
2022/08/17 08:53:58;;;;;;;;;;;;;;;;;;5010622;28;19922;-56
2022/08/17 08:56:24;;;;;;;;;;;;;;;;;;5011938;28;19956;-56
2022/08/17 08:58:49;;;;;;;;;;;;;;;;;;5010117;28;19921;-56
2022/08/17 09:01:14;;;;;;;;;;;;;;;;;;5010050;28;19972;-55
2022/08/17 09:03:40;;;;;;;;;;;;;;;;;;5008964;28;20401;-56
2022/08/17 09:06:05;;;;;;;;;;;;;;;;;;5026067;28;20643;-55
2022/08/17 09:08:31;;;;;;;;;;;;;;;;;;5009385;28;19994;-56
2022/08/17 09:10:56;;;;;;;;;;;;;;;;;;5009575;28;19976;-56
2022/08/17 09:13:21;;;;;;;;;;;;;;;;;;5011214;28;19956;-56
2022/08/17 09:15:46;;;;;;;;;;;;;;;;;;5010422;28;20361;-56
2022/08/17 09:18:11;;;;;;;;;;;;;;;;;;5011214;28;19944;-58
2022/08/17 09:20:39;;;;;;;;;;;;;;;;;;5010374;28;19914;-58
2022/08/17 09:23:05;;;;;;;;;;;;;;;;;;5009938;28;19917;-56
2022/08/17 09:25:31;;;;;;;;;;;;;;;;;;5012408;28;20016;-56
2022/08/17 09:27:58;;;;;;;;;;;;;;;;;;5011180;28;20003;-56
2022/08/17 09:30:23;;;;;;;;;;;;;;;;;;5012474;28;19917;-56
2022/08/17 09:32:50;;;;;;;;;;;;;;;;;;5025303;28;19923;-59
2022/08/17 09:35:16;;;;;;;;;;;;;;;;;;5007516;28;20687;-57
2022/08/17 09:37:41;;;;;;;;;;;;;;;;;;5012356;28;20515;-56
2022/08/17 09:40:08;;;;;;;;;;;;;;;;;;5012400;28;19917;-56
2022/08/17 09:42:33;;;;;;;;;;;;;;;;;;5011227;28;19917;-55
2022/08/17 09:44:58;;;;;;;;;;;;;;;;;;5011127;28;20063;-56
2022/08/17 09:47:23;;;;;;;;;;;;;;;;;;5010008;28;20378;-57
2022/08/17 09:49:49;;;;;;;;;;;;;;;;;;5026794;28;20409;-57
2022/08/17 09:52:14;;;;;;;;;;;;;;;;;;5011932;28;19925;-58
2022/08/17 09:54:39;;;;;;;;;;;;;;;;;;5009663;28;20585;-58
2022/08/17 09:57:04;;;;;;;;;;;;;;;;;;5009325;28;20037;-57
2022/08/17 09:59:31;;;;;;;;;;;;;;;;;;5010478;28;19928;-56
2022/08/17 10:01:56;;;;;;;;;;;;;;;;;;5006427;28;20365;-56
2022/08/17 10:04:21;;;;;;;;;;;;;;;;;;5008129;28;19917;-59
2022/08/17 10:06:46;;;;;;;;;;;;;;;;;;5011997;28;19971;-59
2022/08/17 10:09:11;;;;;;;;;;;;;;;;;;5009432;28;19920;-58
2022/08/17 10:14:21;;;;;;;;;;;;;;;;;;5009654;28;20004;-58
2022/08/17 10:16:46;;;;;;;;;;;;;;;;;;5009493;28;19917;-57
2022/08/17 10:19:12;;;;;;;;;;;;;;;;;;5011185;28;19917;-56
2022/08/17 10:27:05;;;;;;;;;;;;;;;;;;5012023;28;19917;-57
2022/08/17 10:29:30;;;;;;;;;;;;;;;;;;5008495;28;19914;-57
2022/08/17 10:31:58;;;;;;;;;;;;;;;;;;5012672;28;19921;-57
2022/08/17 10:34:23;;;;;;;;;;;;;;;;;;5007447;28;19921;-57
2022/08/17 10:36:48;;;;;;;;;;;;;;;;;;5008173;28;19922;-57
2022/08/17 10:39:13;;;;;;;;;;;;;;;;;;5010368;28;19917;-55
2022/08/17 10:41:39;;;;;;;;;;;;;;;;;;5010001;28;19925;-57
2022/08/17 10:44:04;;;;;;;;;;;;;;;;;;5011928;28;19917;-55
2022/08/17 10:46:30;;;;;;;;;;;;;;;;;;5011212;28;19921;-57
2022/08/17 10:48:55;;;;;;;;;;;;;;;;;;5010345;28;19917;-56
2022/08/17 10:51:20;;;;;;;;;;;;;;;;;;5011654;28;19921;-55
2022/08/17 10:53:46;;;;;;;;;;;;;;;;;;5008201;28;20368;-54
2022/08/17 10:56:11;;;;;;;;;;;;;;;;;;5007678;28;19944;-55
2022/08/17 10:58:37;;;;;;;;;;;;;;;;;;5012613;28;19924;-56
2022/08/17 11:01:02;;;;;;;;;;;;;;;;;;5013444;28;19970;-57
2022/08/17 11:03:28;;;;;;;;;;;;;;;;;;5017018;28;19920;-58
2022/08/17 11:05:53;;;;;;;;;;;;;;;;;;5011383;28;19917;-55
2022/08/17 11:08:18;;;;;;;;;;;;;;;;;;5012188;28;19917;-56
2022/08/17 11:10:44;;;;;;;;;;;;;;;;;;5012692;28;19942;-56
2022/08/17 11:13:09;;;;;;;;;;;;;;;;;;5011835;28;20446;-59
2022/08/17 11:15:34;;;;;;;;;;;;;;;;;;5012844;28;19921;-57
2022/08/17 11:18:00;;;;;;;;;;;;;;;;;;5013785;28;19921;-57
2022/08/17 11:20:25;;;;;;;;;;;;;;;;;;5013662;28;19921;-56
2022/08/17 11:22:51;;;;;;;;;;;;;;;;;;5016773;28;19917;-57
2022/08/17 11:25:16;;;;;;;;;;;;;;;;;;5014457;28;20502;-58
2022/08/17 11:27:42;;;;;;;;;;;;;;;;;;5026692;28;19917;-57
2022/08/17 11:30:07;;;;;;;;;;;;;;;;;;5014063;28;20378;-52
2022/08/17 11:32:32;;;;;;;;;;;;;;;;;;5013056;28;19940;-54
2022/08/17 11:34:57;;;;;;;;;;;;;;;;;;5011766;28;19918;-58
2022/08/17 11:37:22;;;;;;;;;;;;;;;;;;5012117;28;19928;-58
2022/08/17 11:39:48;;;;;;;;;;;;;;;;;;5027971;28;19924;-55
2022/08/17 11:42:13;;;;;;;;;;;;;;;;;;5011583;28;19917;-57
2022/08/17 11:44:38;;;;;;;;;;;;;;;;;;5014371;28;19917;-55
2022/08/17 11:52:31;;;;;;;;;;;;;;;;;;5014268;28;19960;-56
2022/08/17 11:54:58;;;;;;;;;;;;;;;;;;5026643;28;19983;-55
2022/08/17 11:57:23;;;;;;;;;;;;;;;;;;5026783;28;19952;-57
2022/08/17 11:59:49;;;;;;;;;;;;;;;;;;5028504;28;20846;-57
2022/08/17 12:02:14;;;;;;;;;;;;;;;;;;5026947;28;19918;-53
2022/08/17 12:04:39;;;;;;;;;;;;;;;;;;5012819;28;19923;-58
2022/08/17 12:07:04;;;;;;;;;;;;;;;;;;5010860;28;20389;-54
2022/08/17 12:09:29;;;;;;;;;;;;;;;;;;5013708;28;19928;-57
2022/08/17 12:11:55;;;;;;;;;;;;;;;;;;5010838;28;19918;-54
2022/08/17 12:14:21;;;;;;;;;;;;;;;;;;5011178;28;19922;-58
2022/08/17 12:16:46;;;;;;;;;;;;;;;;;;5011642;28;19924;-55
2022/08/17 12:19:11;;;;;;;;;;;;;;;;;;5011482;28;20301;-56
2022/08/17 12:21:36;;;;;;;;;;;;;;;;;;5011519;28;19917;-56
2022/08/17 12:24:04;;;;;;;;;;;;;;;;;;5013827;28;20007;-54
2022/08/17 12:26:29;;;;;;;;;;;;;;;;;;5010504;28;19920;-57
2022/08/17 12:28:56;;;;;;;;;;;;;;;;;;5010672;28;19917;-58
2022/08/17 12:31:21;;;;;;;;;;;;;;;;;;5010103;28;19925;-58
2022/08/17 12:33:46;;;;;;;;;;;;;;;;;;5027853;28;19975;-58
2022/08/17 12:36:13;;;;;;;;;;;;;;;;;;5011119;28;19944;-59
2022/08/17 12:38:40;;;;;;;;;;;;;;;;;;5014625;28;19970;-58
2022/08/17 12:43:49;;;;;;;;;;;;;;;;;;5012228;28;19963;-58
2022/08/17 12:46:15;;;;;;;;;;;;;;;;;;5013679;28;19917;-58
2022/08/17 12:48:41;;;;;;;;;;;;;;;;;;5029430;28;19936;-59
2022/08/17 12:51:07;;;;;;;;;;;;;;;;;;5012566;28;19921;-60
2022/08/17 12:53:35;;;;;;;;;;;;;;;;;;5012646;28;19948;-56
2022/08/17 12:56:01;;;;;;;;;;;;;;;;;;5013323;28;19967;-58
2022/08/17 12:58:26;;;;;;;;;;;;;;;;;;5015949;28;20040;-59
2022/08/17 13:00:51;;;;;;;;;;;;;;;;;;5014283;28;19917;-58
2022/08/17 13:03:18;;;;;;;;;;;;;;;;;;5011776;28;19924;-58
2022/08/17 13:05:43;;;;;;;;;;;;;;;;;;5013127;28;19918;-58
2022/08/17 13:08:09;;;;;;;;;;;;;;;;;;5016204;28;19918;-58
2022/08/17 13:10:34;;;;;;;;;;;;;;;;;;5011320;28;19917;-58
2022/08/17 13:13:03;;;;;;;;;;;;;;;;;;5013945;28;19913;-59
2022/08/17 13:15:28;;;;;;;;;;;;;;;;;;5013962;28;20034;-59
2022/08/17 13:17:55;;;;;;;;;;;;;;;;;;5013947;28;20003;-58
2022/08/17 13:20:20;;;;;;;;;;;;;;;;;;5013329;28;19921;-58
2022/08/17 13:22:45;;;;;;;;;;;;;;;;;;5012655;28;19914;-59
2022/08/17 13:25:13;;;;;;;;;;;;;;;;;;5013808;28;19921;-58
2022/08/17 13:27:38;;;;;;;;;;;;;;;;;;5029604;28;20075;-58
2022/08/17 13:30:04;;;;;;;;;;;;;;;;;;5012113;28;20043;-58
2022/08/17 13:32:29;;;;;;;;;;;;;;;;;;5013573;28;19922;-58
2022/08/17 13:34:55;;;;;;;;;;;;;;;;;;5010826;28;19961;-58
2022/08/17 13:37:33;;;;;;;;;;;;;;;;;;5026556;28;19930;-58
2022/08/17 13:39:58;;;;;;;;;;;;;;;;;;5011198;28;19924;-62
2022/08/17 13:42:24;;;;;;;;;;;;;;;;;;5009645;28;19913;-58
2022/08/17 13:44:49;;;;;;;;;;;;;;;;;;5012148;28;19924;-59
2022/08/17 13:47:14;;;;;;;;;;;;;;;;;;5013020;28;19953;-58
2022/08/17 13:49:39;;;;;;;;;;;;;;;;;;5011813;28;20015;-60
2022/08/17 13:52:04;;;;;;;;;;;;;;;;;;5028331;28;19999;-57
2022/08/17 13:54:30;;;;;;;;;;;;;;;;;;5012428;28;20446;-57
2022/08/17 13:56:56;;;;;;;;;;;;;;;;;;5029584;28;20003;-57
2022/08/17 13:59:21;;;;;;;;;;;;;;;;;;5028615;28;20338;-57
2022/08/17 14:01:46;;;;;;;;;;;;;;;;;;5014893;28;20363;-57
2022/08/17 14:04:11;;;;;;;;;;;;;;;;;;5012161;28;19917;-58
2022/08/17 14:06:37;;;;;;;;;;;;;;;;;;5012982;28;19924;-57
2022/08/17 14:09:02;;;;;;;;;;;;;;;;;;5012165;28;19917;-58
2022/08/17 14:11:27;;;;;;;;;;;;;;;;;;5011136;28;19929;-57
2022/08/17 14:13:53;;;;;;;;;;;;;;;;;;5011841;28;19921;-58
2022/08/17 14:16:19;;;;;;;;;;;;;;;;;;5011594;28;19922;-57
2022/08/17 14:18:44;;;;;;;;;;;;;;;;;;5013066;28;19924;-58
2022/08/17 14:21:09;;;;;;;;;;;;;;;;;;5012615;28;19918;-58
2022/08/17 14:23:35;;;;;;;;;;;;;;;;;;5015472;28;19978;-57
2022/08/17 14:26:00;;;;;;;;;;;;;;;;;;5014913;28;19921;-59
2022/08/17 14:28:25;;;;;;;;;;;;;;;;;;5012170;28;20015;-58
2022/08/17 14:30:51;;;;;;;;;;;;;;;;;;5013333;28;19921;-58
2022/08/17 14:33:23;;;;;;;;;;;;;;;;;;5013214;28;19929;-58
2022/08/17 14:35:50;;;;;;;;;;;;;;;;;;5015783;28;19939;-59
2022/08/17 14:38:16;;;;;;;;;;;;;;;;;;5019368;28;20092;-58
2022/08/17 14:40:41;;;;;;;;;;;;;;;;;;5016756;28;20369;-58
2022/08/17 14:43:07;;;;;;;;;;;;;;;;;;5017201;28;19932;-58
2022/08/17 14:45:32;;;;;;;;;;;;;;;;;;5017269;28;20443;-58
2022/08/17 14:47:57;;;;;;;;;;;;;;;;;;5017353;28;19948;-58
2022/08/17 14:50:22;;;;;;;;;;;;;;;;;;5015874;28;19924;-58
2022/08/17 14:52:47;;;;;;;;;;;;;;;;;;5016896;28;19928;-58
2022/08/17 14:55:13;;;;;;;;;;;;;;;;;;5018178;28;20138;-58
2022/08/17 14:57:41;;;;;;;;;;;;;;;;;;5031019;28;19957;-58
2022/08/17 15:00:06;;;;;;;;;;;;;;;;;;5016258;28;19917;-61
2022/08/17 15:02:32;;;;;;;;;;;;;;;;;;5015375;28;20301;-59
2022/08/17 15:04:58;;;;;;;;;;;;;;;;;;5015284;28;20278;-57
2022/08/17 15:07:23;;;;;;;;;;;;;;;;;;5034419;28;19952;-59
2022/08/17 15:09:48;;;;;;;;;;;;;;;;;;5015912;28;19917;-58
2022/08/17 15:12:13;;;;;;;;;;;;;;;;;;5017081;28;19913;-59
2022/08/17 15:14:38;;;;;;;;;;;;;;;;;;5015765;28;20449;-61
2022/08/17 15:17:04;;;;;;;;;;;;;;;;;;5013874;28;19963;-59
2022/08/17 15:19:29;;;;;;;;;;;;;;;;;;5016217;28;20000;-58
2022/08/17 15:21:54;;;;;;;;;;;;;;;;;;5015506;28;19918;-59
2022/08/17 15:24:20;;;;;;;;;;;;;;;;;;5030306;28;19928;-59
2022/08/17 15:26:46;;;;;;;;;;;;;;;;;;5014230;28;19917;-58
2022/08/17 15:29:11;;;;;;;;;;;;;;;;;;5013945;28;20020;-59
2022/08/17 15:31:37;;;;;;;;;;;;;;;;;;5015045;28;19921;-59
2022/08/17 15:34:04;;;;;;;;;;;;;;;;;;5016092;28;20429;-60
2022/08/17 15:36:29;;;;;;;;;;;;;;;;;;5015788;28;19924;-59
2022/08/17 15:38:54;;;;;;;;;;;;;;;;;;5017642;28;19917;-59
2022/08/17 15:41:19;;;;;;;;;;;;;;;;;;5015730;28;19968;-57
2022/08/17 15:43:44;;;;;;;;;;;;;;;;;;5013644;28;20018;-58
2022/08/17 15:46:10;;;;;;;;;;;;;;;;;;5011201;28;20814;-58
2022/08/17 15:48:42;;;;;;;;;;;;;;;;;;5002623;28;20478;-59
2022/08/17 15:51:07;;;;;;;;;;;;;;;;;;5010269;28;19959;-58
2022/08/17 15:53:32;;;;;;;;;;;;;;;;;;5005573;28;20008;-58
2022/08/17 15:55:58;;;;;;;;;;;;;;;;;;5009267;28;20036;-59
2022/08/17 15:58:23;;;;;;;;;;;;;;;;;;5019832;28;19917;-58
2022/08/17 16:00:48;;;;;;;;;;;;;;;;;;5010961;28;20447;-59
2022/08/17 16:03:13;;;;;;;;;;;;;;;;;;5009878;28;20692;-59
2022/08/17 16:05:39;;;;;;;;;;;;;;;;;;5020766;28;19952;-57
2022/08/17 16:08:05;;;;;;;;;;;;;;;;;;5013437;28;20286;-59
2022/08/17 16:10:30;;;;;;;;;;;;;;;;;;5009570;28;19924;-57
2022/08/17 16:12:56;;;;;;;;;;;;;;;;;;5006882;28;19972;-57
2022/08/17 16:15:21;;;;;;;;;;;;;;;;;;5011510;28;19940;-58
2022/08/17 16:17:47;;;;;;;;;;;;;;;;;;5007395;28;19913;-58
2022/08/17 16:20:12;;;;;;;;;;;;;;;;;;5011918;28;19963;-57
2022/08/17 16:22:37;;;;;;;;;;;;;;;;;;5020061;28;20067;-58
2022/08/17 16:25:02;;;;;;;;;;;;;;;;;;5002974;28;19948;-58
2022/08/17 16:27:28;;;;;;;;;;;;;;;;;;5011189;28;19923;-60
2022/08/17 16:29:53;;;;;;;;;;;;;;;;;;5002649;28;19968;-59
2022/08/17 16:32:18;;;;;;;;;;;;;;;;;;5009569;28;19920;-58
2022/08/17 16:34:43;;;;;;;;;;;;;;;;;;5005656;28;19988;-58
2022/08/17 16:37:08;;;;;;;;;;;;;;;;;;5018870;28;19921;-59
2022/08/17 16:39:33;;;;;;;;;;;;;;;;;;5008476;28;19917;-60
2022/08/17 16:42:01;;;;;;;;;;;;;;;;;;5005060;28;19961;-58
2022/08/17 16:44:30;;;;;;;;;;;;;;;;;;5010461;28;19921;-58
2022/08/17 16:46:56;;;;;;;;;;;;;;;;;;5009884;28;19955;-60
2022/08/17 16:49:21;;;;;;;;;;;;;;;;;;5002739;28;20469;-58
2022/08/17 16:51:47;;;;;;;;;;;;;;;;;;5009641;28;19921;-58
2022/08/17 16:54:13;;;;;;;;;;;;;;;;;;5003430;28;20427;-59
2022/08/17 16:56:38;;;;;;;;;;;;;;;;;;5005996;28;19944;-59
2022/08/17 16:59:06;;;;;;;;;;;;;;;;;;5010316;28;20283;-59
2022/08/17 17:01:31;;;;;;;;;;;;;;;;;;5004890;28;19921;-58
2022/08/17 17:03:56;;;;;;;;;;;;;;;;;;5024698;28;19923;-59
2022/08/17 17:06:22;;;;;;;;;;;;;;;;;;5004689;28;19922;-59